createdAt,value
2022-10-05T00:02:25.992Z,99637.47
2022-10-05T00:04:55.973Z,99648.63
2022-10-05T00:07:24.182Z,99652.66
2022-10-05T00:09:59.175Z,99643.81
2022-10-05T00:12:28.364Z,99652.63
2022-10-05T00:15:01.249Z,99658.47
2022-10-05T00:17:30.127Z,99668.81
2022-10-05T00:19:56.961Z,99668.22
2022-10-05T00:22:32.930Z,99673.19
2022-10-05T00:25:03.411Z,99674.72
2022-10-05T00:27:35.992Z,99669.50
2022-10-05T00:30:12.819Z,99670.50
2022-10-05T00:32:39.227Z,99676.50
2022-10-05T00:35:06.111Z,99683.03
2022-10-05T00:37:32.557Z,99676.97
2022-10-05T00:39:58.879Z,99662.59
2022-10-05T00:42:31.008Z,99672.28
2022-10-05T00:45:05.650Z,99677.34
2022-10-05T00:47:36.307Z,99683.81
2022-10-05T00:50:27.030Z,99681.91
2022-10-05T00:53:08.882Z,99675.56
2022-10-05T00:55:54.674Z,99675.63
2022-10-05T00:58:45.647Z,99673.25
2022-10-05T01:01:17.867Z,99675.22
2022-10-05T01:04:06.371Z,99674.19
2022-10-05T01:07:13.376Z,99672.75
2022-10-05T01:09:51.873Z,99665.72
2022-10-05T01:12:42.356Z,99659.88
2022-10-05T01:15:16.102Z,99654.59
2022-10-05T01:17:59.272Z,99664.53
2022-10-05T01:20:52.766Z,99650.16
2022-10-05T01:23:39.626Z,99651.81
2022-10-05T01:26:18.004Z,99658.00
2022-10-05T01:28:52.146Z,99653.53
2022-10-05T01:31:23.512Z,99653.22
2022-10-05T01:34:11.590Z,99657.38
2022-10-05T01:37:07.137Z,99661.56
2022-10-05T01:39:46.672Z,99647.66
2022-10-05T01:42:51.585Z,99659.34
2022-10-05T01:45:49.301Z,99639.78
2022-10-05T01:48:26.852Z,99648.53
2022-10-05T01:51:22.067Z,99642.69
2022-10-05T01:53:54.002Z,99645.16
2022-10-05T01:56:38.115Z,99648.88
2022-10-05T01:59:11.034Z,99645.16
2022-10-05T02:02:01.270Z,99645.41
2022-10-05T02:05:01.050Z,99638.19
2022-10-05T02:07:28.843Z,99628.47
2022-10-05T02:10:00.519Z,99622.72
2022-10-05T02:12:31.365Z,99620.28
2022-10-05T02:15:06.711Z,99622.53
2022-10-05T02:17:40.381Z,99615.94
2022-10-05T02:20:11.531Z,99607.59
2022-10-05T02:22:39.982Z,99606.84
2022-10-05T02:25:13.301Z,99601.78
2022-10-05T02:27:47.808Z,99598.19
2022-10-05T02:30:16.970Z,99593.00
2022-10-05T02:32:53.644Z,99591.44
2022-10-05T02:35:21.662Z,99593.88
2022-10-05T02:38:11.744Z,99589.97
2022-10-05T02:41:04.666Z,99586.22
2022-10-05T02:43:53.032Z,99586.75
2022-10-05T02:46:30.364Z,99593.00
2022-10-05T02:49:24.129Z,99596.84
2022-10-05T02:52:17.976Z,99603.84
2022-10-05T02:55:00.022Z,99614.91
2022-10-05T02:57:34.202Z,99603.44
2022-10-05T03:00:09.301Z,99614.75
2022-10-05T03:02:50.943Z,99617.44
2022-10-05T03:05:26.993Z,99618.03
2022-10-05T03:08:06.352Z,99619.53
2022-10-05T03:11:04.614Z,99613.47
2022-10-05T03:13:47.797Z,99622.69
2022-10-05T03:16:39.457Z,99616.16
2022-10-05T03:19:36.184Z,99615.19
2022-10-05T03:22:17.735Z,99615.78
2022-10-05T03:25:38.060Z,99611.00
2022-10-05T03:28:35.159Z,99620.53
2022-10-05T03:31:10.945Z,99610.78
2022-10-05T03:33:46.792Z,99614.09
2022-10-05T03:36:25.210Z,99609.66
2022-10-05T03:39:08.945Z,99612.69
2022-10-05T03:41:49.934Z,99614.56
2022-10-05T03:44:36.821Z,99609.00
2022-10-05T03:47:03.043Z,99615.44
2022-10-05T03:49:47.847Z,99603.59
2022-10-05T03:52:32.442Z,99604.06
2022-10-05T03:55:12.721Z,99594.75
2022-10-05T03:57:41.301Z,99589.97
2022-10-05T04:00:17.786Z,99594.75
2022-10-05T04:03:00.653Z,99577.16
2022-10-05T04:05:35.529Z,99578.75
2022-10-05T04:08:07.807Z,99574.03
2022-10-05T04:10:56.489Z,99562.22
2022-10-05T04:13:33.755Z,99550.88
2022-10-05T04:16:12.836Z,99544.50
2022-10-05T04:18:45.344Z,99543.22
2022-10-05T04:21:26.020Z,99542.66
2022-10-05T04:24:13.392Z,99561.09
2022-10-05T04:26:46.000Z,99565.09
2022-10-05T04:29:24.408Z,99563.34
2022-10-05T04:32:03.039Z,99562.09
2022-10-05T04:34:42.109Z,99555.72
2022-10-05T04:37:19.782Z,99545.97
2022-10-05T04:40:34.031Z,99550.94
2022-10-05T04:43:22.457Z,99552.25
2022-10-05T04:46:32.843Z,99551.63
2022-10-05T04:49:42.284Z,99551.81
2022-10-05T04:52:20.481Z,99544.66
2022-10-05T04:54:58.740Z,99544.84
2022-10-05T04:57:41.463Z,99539.03
2022-10-05T05:00:29.158Z,99550.09
2022-10-05T05:03:15.190Z,99539.94
2022-10-05T05:06:17.495Z,99543.47
2022-10-05T05:09:09.543Z,99545.38
2022-10-05T05:11:56.740Z,99543.53
2022-10-05T05:14:52.637Z,99539.34
2022-10-05T05:17:57.694Z,99548.91
2022-10-05T05:20:39.273Z,99557.56
2022-10-05T05:23:17.386Z,99562.06
2022-10-05T05:25:46.482Z,99569.78
2022-10-05T05:28:25.650Z,99564.03
2022-10-05T05:30:55.132Z,99558.41
2022-10-05T05:33:47.986Z,99558.31
2022-10-05T05:36:45.537Z,99558.69
2022-10-05T05:39:11.936Z,99544.56
2022-10-05T05:41:42.625Z,99535.75
2022-10-05T05:44:25.894Z,99551.09
2022-10-05T05:47:29.440Z,99542.75
2022-10-05T05:50:19.184Z,99549.69
2022-10-05T05:53:03.626Z,99532.44
2022-10-05T05:55:38.601Z,99540.22
2022-10-05T05:58:17.245Z,99538.75
2022-10-05T06:00:55.068Z,99555.63
2022-10-05T06:03:35.411Z,99543.06
2022-10-05T06:06:06.650Z,99552.63
2022-10-05T06:08:41.233Z,99550.16
2022-10-05T06:11:22.780Z,99561.31
2022-10-05T06:13:49.540Z,99552.13
2022-10-05T06:16:25.544Z,99565.31
2022-10-05T06:18:57.227Z,99559.19
2022-10-05T06:21:41.462Z,99563.75
2022-10-05T06:24:31.567Z,99569.09
2022-10-05T06:27:34.704Z,99569.31
2022-10-05T06:30:13.522Z,99573.66
2022-10-05T06:33:18.651Z,99567.38
2022-10-05T06:36:15.072Z,99578.53
2022-10-05T06:39:01.804Z,99569.47
2022-10-05T06:41:44.508Z,99575.56
2022-10-05T06:44:26.062Z,99577.78
2022-10-05T06:47:29.954Z,99574.13
2022-10-05T06:50:14.842Z,99559.31
2022-10-05T06:53:03.136Z,99569.53
2022-10-05T06:55:59.402Z,99570.72
2022-10-05T06:58:43.087Z,99569.78
2022-10-05T07:01:27.017Z,99564.41
2022-10-05T07:04:16.846Z,99573.78
2022-10-05T07:06:57.701Z,99567.09
2022-10-05T07:09:33.002Z,99568.81
2022-10-05T07:12:18.036Z,99568.59
2022-10-05T07:14:57.514Z,99572.66
2022-10-05T07:17:31.299Z,99588.06
2022-10-05T07:20:20.496Z,99598.97
2022-10-05T07:23:04.140Z,99595.69
2022-10-05T07:25:30.457Z,99597.94
2022-10-05T07:28:20.765Z,99595.41
2022-10-05T07:30:58.295Z,99597.72
2022-10-05T07:33:33.837Z,99602.69
2022-10-05T07:36:05.163Z,99597.59
2022-10-05T07:39:55.215Z,99591.00
2022-10-05T07:42:32.458Z,99595.91
2022-10-05T07:45:15.269Z,99582.75
2022-10-05T07:47:51.390Z,99591.19
2022-10-05T07:50:49.697Z,99609.78
2022-10-05T07:53:25.853Z,99601.69
2022-10-05T07:56:00.994Z,99599.94
2022-10-05T07:58:30.309Z,99608.91
2022-10-05T08:01:16.971Z,99609.88
2022-10-05T08:03:58.674Z,99607.56
2022-10-05T08:06:46.851Z,99606.34
2022-10-05T08:09:32.976Z,99605.69
2022-10-05T08:12:01.923Z,99604.13
2022-10-05T08:15:15.514Z,99599.88
2022-10-05T08:17:55.231Z,99606.78
2022-10-05T08:20:45.314Z,99594.63
2022-10-05T08:23:20.775Z,99590.22
2022-10-05T08:25:47.288Z,99599.88
2022-10-05T08:28:38.376Z,99601.34
2022-10-05T08:31:07.651Z,99598.50
2022-10-05T08:33:53.578Z,99597.34
2022-10-05T08:36:23.773Z,99607.47
2022-10-05T08:38:55.236Z,99594.81
2022-10-05T08:41:36.463Z,99607.00
2022-10-05T08:44:41.947Z,99628.94
2022-10-05T08:47:33.462Z,99621.88
2022-10-05T08:50:10.171Z,99616.31
2022-10-05T08:52:58.123Z,99618.78
2022-10-05T08:55:36.476Z,99616.69
2022-10-05T08:58:24.706Z,99629.59
2022-10-05T09:01:06.091Z,99622.59
2022-10-05T09:04:10.002Z,99619.16
2022-10-05T09:07:07.048Z,99618.72
2022-10-05T09:09:46.328Z,99610.94
2022-10-05T09:12:42.831Z,99611.03
2022-10-05T09:15:39.630Z,99612.72
2022-10-05T09:18:54.250Z,99615.03
2022-10-05T09:21:44.250Z,99620.41
2022-10-05T09:24:33.897Z,99617.13
2022-10-05T09:27:12.789Z,99620.81
2022-10-05T09:29:54.251Z,99624.25
2022-10-05T09:32:40.976Z,99621.38
2022-10-05T09:35:16.028Z,99624.84
2022-10-05T09:38:15.709Z,99609.41
2022-10-05T09:40:54.218Z,99614.50
2022-10-05T09:43:48.576Z,99620.38
2022-10-05T09:46:34.213Z,99610.69
2022-10-05T09:49:33.148Z,99603.81
2022-10-05T09:52:41.744Z,99605.00
2022-10-05T09:55:29.563Z,99606.22
2022-10-05T09:58:36.522Z,99603.81
2022-10-05T10:01:34.078Z,99595.09
2022-10-05T10:04:19.280Z,99595.22
2022-10-05T10:07:06.949Z,99597.91
2022-10-05T10:10:14.974Z,99589.72
2022-10-05T10:12:55.218Z,99591.16
2022-10-05T10:15:41.149Z,99581.28
2022-10-05T10:18:16.775Z,99572.59
2022-10-05T10:21:24.265Z,99571.00
2022-10-05T10:24:20.329Z,99556.09
2022-10-05T10:27:08.139Z,99547.47
2022-10-05T10:29:50.861Z,99545.59
2022-10-05T10:32:41.803Z,99553.16
2022-10-05T10:35:32.038Z,99552.84
2022-10-05T10:38:32.514Z,99562.25
2022-10-05T10:41:30.115Z,99560.94
2022-10-05T10:44:30.846Z,99558.31
2022-10-05T10:47:08.730Z,99560.69
2022-10-05T10:49:44.236Z,99551.38
2022-10-05T10:52:29.339Z,99542.75
2022-10-05T10:55:09.552Z,99540.81
2022-10-05T10:58:03.326Z,99548.91
2022-10-05T11:00:47.997Z,99552.78
2022-10-05T11:03:33.485Z,99542.13
2022-10-05T11:06:35.988Z,99543.25
2022-10-05T11:09:29.691Z,99545.59
2022-10-05T11:12:34.913Z,99549.09
2022-10-05T11:15:16.499Z,99539.38
2022-10-05T11:18:08.915Z,99524.66
2022-10-05T11:21:12.395Z,99528.47
2022-10-05T11:24:03.943Z,99525.31
2022-10-05T11:26:36.205Z,99512.22
2022-10-05T11:29:24.724Z,99509.09
2022-10-05T11:32:05.792Z,99505.25
2022-10-05T11:34:43.950Z,99511.53
2022-10-05T11:37:10.265Z,99500.00
2022-10-05T11:40:02.555Z,99502.16
2022-10-05T11:42:38.246Z,99490.72
2022-10-05T11:45:26.114Z,99494.28
2022-10-05T11:48:26.730Z,99489.47
2022-10-05T11:51:27.805Z,99488.53
2022-10-05T11:54:17.919Z,99476.97
2022-10-05T11:56:56.555Z,99482.91
2022-10-05T12:00:02.203Z,99469.97
2022-10-05T12:02:47.013Z,99481.13
2022-10-05T12:05:32.447Z,99468.38
2022-10-05T12:08:13.539Z,99458.69
2022-10-05T12:11:31.257Z,99448.97
2022-10-05T12:14:01.792Z,99449.63
2022-10-05T12:16:36.393Z,99451.94
2022-10-05T12:19:22.909Z,99445.66
2022-10-05T12:21:58.403Z,99435.13
2022-10-05T12:24:28.939Z,99436.75
2022-10-05T12:27:01.334Z,99422.72
2022-10-05T12:29:41.735Z,99423.06
2022-10-05T12:32:21.198Z,99422.06
2022-10-05T12:35:01.823Z,99425.06
2022-10-05T12:37:58.484Z,99430.34
2022-10-05T12:40:35.879Z,99438.88
2022-10-05T12:43:18.688Z,99429.59
2022-10-05T12:45:55.398Z,99417.75
2022-10-05T12:48:22.045Z,99421.44
2022-10-05T12:51:00.720Z,99423.28
2022-10-05T12:53:51.840Z,99408.13
2022-10-05T12:56:28.100Z,99411.19
2022-10-05T12:59:00.878Z,99406.91
2022-10-05T13:01:41.642Z,99407.06
2022-10-05T13:04:19.130Z,99410.59
2022-10-05T13:07:04.469Z,99408.59
2022-10-05T13:09:43.424Z,99409.41
2022-10-05T13:12:35.072Z,99405.97
2022-10-05T13:15:10.667Z,99409.53
2022-10-05T13:18:06.773Z,99395.47
2022-10-05T13:20:45.367Z,99392.56
2022-10-05T13:23:33.606Z,99400.59
2022-10-05T13:26:11.222Z,99386.84
2022-10-05T13:29:04.160Z,99389.53
2022-10-05T13:31:44.555Z,99379.84
2022-10-05T13:34:27.991Z,99387.88
2022-10-05T13:37:35.885Z,99383.44
2022-10-05T13:40:28.058Z,99380.63
2022-10-05T13:43:11.700Z,99370.28
2022-10-05T13:45:52.670Z,99371.09
2022-10-05T13:48:53.403Z,99378.44
2022-10-05T13:51:47.454Z,99386.22
2022-10-05T13:55:03.426Z,99372.16
2022-10-05T13:57:41.983Z,99376.84
2022-10-05T14:00:24.138Z,99384.72
2022-10-05T14:02:56.231Z,99373.31
2022-10-05T14:05:28.422Z,99373.31
2022-10-05T14:08:16.247Z,99372.81
2022-10-05T14:10:47.866Z,99366.34
2022-10-05T14:13:27.517Z,99365.25
2022-10-05T14:16:01.910Z,99364.38
2022-10-05T14:18:29.098Z,99376.72
2022-10-05T14:21:18.317Z,99350.28
2022-10-05T14:23:44.693Z,99362.66
2022-10-05T14:26:38.925Z,99358.00
2022-10-05T14:29:14.476Z,99357.97
2022-10-05T14:31:53.381Z,99347.94
2022-10-05T14:34:45.032Z,99346.28
2022-10-05T14:37:23.874Z,99331.38
2022-10-05T14:39:52.225Z,99328.91
2022-10-05T14:42:20.583Z,99323.72
2022-10-05T14:45:12.511Z,99329.22
2022-10-05T14:47:53.504Z,99334.56
2022-10-05T14:50:22.741Z,99328.13
2022-10-05T14:53:04.281Z,99330.66
2022-10-05T14:56:08.453Z,99321.69
2022-10-05T14:58:56.915Z,99337.41
2022-10-05T15:01:35.138Z,99326.50
2022-10-05T15:04:16.702Z,99330.22
2022-10-05T15:06:55.545Z,99315.97
2022-10-05T15:10:20.731Z,99320.47
2022-10-05T15:12:48.063Z,99328.97
2022-10-05T15:15:14.336Z,99318.06
2022-10-05T15:17:49.689Z,99316.91
2022-10-05T15:20:39.001Z,99311.38
2022-10-05T15:23:27.882Z,99311.84
2022-10-05T15:26:03.163Z,99312.72
2022-10-05T15:28:34.106Z,99304.50
2022-10-05T15:31:12.673Z,99298.19
2022-10-05T15:34:00.113Z,99301.88
2022-10-05T15:36:43.810Z,99299.66
2022-10-05T15:39:24.737Z,99309.94
2022-10-05T15:42:06.709Z,99301.78
2022-10-05T15:44:41.177Z,99300.06
2022-10-05T15:47:18.984Z,99286.25
2022-10-05T15:49:51.004Z,99283.84
2022-10-05T15:52:29.870Z,99282.19
2022-10-05T15:55:18.973Z,99286.19
2022-10-05T15:58:10.201Z,99272.34
2022-10-05T16:00:43.531Z,99278.16
2022-10-05T16:03:19.225Z,99273.31
2022-10-05T16:05:51.439Z,99278.84
2022-10-05T16:08:28.694Z,99286.53
2022-10-05T16:10:55.542Z,99281.84
2022-10-05T16:13:36.060Z,99279.09
2022-10-05T16:16:21.260Z,99286.16
2022-10-05T16:19:08.738Z,99279.66
2022-10-05T16:22:03.630Z,99281.59
2022-10-05T16:25:04.278Z,99289.56
2022-10-05T16:27:52.913Z,99285.09
2022-10-05T16:30:21.834Z,99286.88
2022-10-05T16:33:10.838Z,99286.38
2022-10-05T16:35:57.769Z,99286.38
2022-10-05T16:38:29.847Z,99294.91
2022-10-05T16:41:04.882Z,99293.50
2022-10-05T16:43:56.376Z,99295.78
2022-10-05T16:46:28.544Z,99288.25
2022-10-05T16:49:30.931Z,99292.63
2022-10-05T16:52:02.228Z,99289.72
2022-10-05T16:54:37.786Z,99272.72
2022-10-05T16:57:10.710Z,99285.63
2022-10-05T16:59:49.209Z,99293.88
2022-10-05T17:02:32.206Z,99285.56
2022-10-05T17:05:25.978Z,99293.91
2022-10-05T17:08:35.635Z,99305.47
2022-10-05T17:11:04.627Z,99322.34
2022-10-05T17:13:46.566Z,99315.28
2022-10-05T17:16:37.578Z,99318.75
2022-10-05T17:19:19.009Z,99324.22
2022-10-05T17:21:56.619Z,99328.78
2022-10-05T17:24:41.668Z,99337.94
2022-10-05T17:27:44.811Z,99324.31
2022-10-05T17:30:47.230Z,99336.94
2022-10-05T17:33:30.425Z,99342.53
2022-10-05T17:35:59.557Z,99348.75
2022-10-05T17:38:32.143Z,99339.72
2022-10-05T17:41:16.597Z,99347.41
2022-10-05T17:44:13.861Z,99356.91
2022-10-05T17:46:45.098Z,99355.00
2022-10-05T17:49:14.114Z,99364.56
2022-10-05T17:51:40.368Z,99369.88
2022-10-05T17:54:25.269Z,99362.72
2022-10-05T17:56:51.538Z,99372.53
2022-10-05T17:59:38.089Z,99373.38
2022-10-05T18:02:15.642Z,99375.03
2022-10-05T18:04:50.328Z,99373.84
2022-10-05T18:07:22.993Z,99378.84
2022-10-05T18:10:10.910Z,99375.88
2022-10-05T18:12:37.160Z,99389.31
2022-10-05T18:15:07.430Z,99387.41
2022-10-05T18:17:39.805Z,99400.31
2022-10-05T18:20:12.367Z,99391.94
2022-10-05T18:22:38.995Z,99389.19
2022-10-05T18:25:19.246Z,99397.16
2022-10-05T18:28:00.323Z,99395.09
2022-10-05T18:30:33.901Z,99401.41
2022-10-05T18:33:18.787Z,99406.25
2022-10-05T18:35:57.311Z,99410.91
2022-10-05T18:39:01.166Z,99401.25
2022-10-05T18:41:30.407Z,99412.16
2022-10-05T18:44:22.221Z,99407.59
2022-10-05T18:47:00.509Z,99407.50
2022-10-05T18:49:43.111Z,99413.31
2022-10-05T18:52:33.751Z,99408.13
2022-10-05T18:55:18.894Z,99410.97
2022-10-05T18:58:08.794Z,99412.75
2022-10-05T19:01:05.398Z,99423.19
2022-10-05T19:03:38.993Z,99415.13
2022-10-05T19:06:13.814Z,99413.16
2022-10-05T19:08:50.690Z,99415.97
2022-10-05T19:11:25.511Z,99425.09
2022-10-05T19:14:25.066Z,99423.03
2022-10-05T19:16:51.330Z,99409.53
2022-10-05T19:19:29.322Z,99415.72
2022-10-05T19:22:31.505Z,99422.44
2022-10-05T19:25:25.580Z,99431.03
2022-10-05T19:28:06.794Z,99434.34
2022-10-05T19:31:01.218Z,99433.50
2022-10-05T19:33:52.875Z,99432.81
2022-10-05T19:36:44.580Z,99436.03
2022-10-05T19:39:18.199Z,99436.75
2022-10-05T19:41:50.269Z,99450.91
2022-10-05T19:44:27.544Z,99433.44
2022-10-05T19:47:00.259Z,99443.47
2022-10-05T19:49:43.270Z,99450.16
2022-10-05T19:52:21.140Z,99444.91
2022-10-05T19:55:00.354Z,99445.97
2022-10-05T19:57:26.702Z,99453.69
2022-10-05T19:59:56.856Z,99452.31
2022-10-05T20:02:25.609Z,99449.97
2022-10-05T20:04:51.985Z,99448.94
2022-10-05T20:07:19.495Z,99461.13
2022-10-05T20:10:14.177Z,99460.34
2022-10-05T20:12:54.381Z,99466.00
2022-10-05T20:15:23.397Z,99471.75
2022-10-05T20:17:49.846Z,99466.84
2022-10-05T20:20:30.298Z,99473.75
2022-10-05T20:23:19.581Z,99486.31
2022-10-05T20:25:45.938Z,99475.38
2022-10-05T20:28:12.299Z,99488.78
2022-10-05T20:30:38.759Z,99495.47
2022-10-05T20:33:06.204Z,99494.00
2022-10-05T20:35:32.514Z,99504.88
2022-10-05T20:37:59.175Z,99511.75
2022-10-05T20:40:29.497Z,99515.38
2022-10-05T20:42:56.923Z,99518.50
2022-10-05T20:45:23.594Z,99526.56
2022-10-05T20:47:49.941Z,99519.03
2022-10-05T20:50:16.402Z,99529.13
2022-10-05T20:52:42.874Z,99526.47
2022-10-05T20:55:10.960Z,99542.72
2022-10-05T20:57:37.679Z,99537.03
2022-10-05T21:00:05.764Z,99534.75
2022-10-05T21:02:33.636Z,99540.63
2022-10-05T21:05:00.011Z,99545.19
2022-10-05T21:07:26.328Z,99542.91
2022-10-05T21:09:52.750Z,99546.00
2022-10-05T21:12:19.047Z,99567.50
2022-10-05T21:14:45.338Z,99555.56
2022-10-05T21:17:11.656Z,99566.06
2022-10-05T21:19:38.002Z,99565.13
2022-10-05T21:22:07.104Z,99574.97
2022-10-05T21:24:35.044Z,99573.25
2022-10-05T21:27:02.687Z,99572.72
2022-10-05T21:29:29.956Z,99574.47
2022-10-05T21:31:56.619Z,99578.72
2022-10-05T21:34:23.239Z,99583.16
2022-10-05T21:36:49.742Z,99595.66
2022-10-05T21:39:16.395Z,99583.88
2022-10-05T21:41:42.746Z,99597.97
2022-10-05T21:44:09.051Z,99595.75
2022-10-05T21:46:38.024Z,99593.84
2022-10-05T21:49:07.271Z,99609.09
2022-10-05T21:51:34.578Z,99607.19
2022-10-05T21:54:09.225Z,99605.16
2022-10-05T21:56:40.034Z,99607.31
2022-10-05T21:59:10.811Z,99610.19
2022-10-05T22:01:37.278Z,99613.88
2022-10-05T22:04:04.980Z,99609.34
2022-10-05T22:06:31.707Z,99599.84
2022-10-05T22:08:58.637Z,99596.09
2022-10-05T22:11:25.729Z,99596.25
2022-10-05T22:13:53.011Z,99608.97
2022-10-05T22:16:23.895Z,99596.50
2022-10-05T22:18:50.327Z,99593.53
2022-10-05T22:21:17.231Z,99604.63
2022-10-05T22:23:45.732Z,99606.75
2022-10-05T22:26:15.571Z,99604.50
2022-10-05T22:28:43.257Z,99616.69
2022-10-05T22:31:18.610Z,99613.59
2022-10-05T22:33:45.153Z,99605.75
2022-10-05T22:36:11.975Z,99611.50
2022-10-05T22:38:38.448Z,99595.22
2022-10-05T22:41:09.925Z,99596.94
2022-10-05T22:43:37.296Z,99602.00
2022-10-05T22:46:13.427Z,99608.56
2022-10-05T22:48:40.303Z,99613.19
2022-10-05T22:51:07.546Z,99616.25
2022-10-05T22:53:34.928Z,99624.94
2022-10-05T22:56:09.371Z,99624.97
2022-10-05T22:58:36.453Z,99630.09
2022-10-05T23:01:06.168Z,99642.59
2022-10-05T23:03:33.538Z,99642.75
2022-10-05T23:06:05.157Z,99638.38
2022-10-05T23:08:32.900Z,99643.13
2022-10-05T23:11:21.256Z,99622.81
2022-10-05T23:13:47.585Z,99639.38
2022-10-05T23:16:16.549Z,99644.56
2022-10-05T23:18:44.296Z,99636.41
2022-10-05T23:21:11.129Z,99626.44
2022-10-05T23:23:42.972Z,99650.78
2022-10-05T23:26:11.104Z,99652.25
2022-10-05T23:28:39.528Z,99660.22
2022-10-05T23:31:08.040Z,99666.91
2022-10-05T23:33:35.502Z,99676.19
2022-10-05T23:36:08.234Z,99683.56
2022-10-05T23:38:36.087Z,99692.97
2022-10-05T23:41:02.744Z,99688.75
2022-10-05T23:43:29.609Z,99700.03
2022-10-05T23:45:56.312Z,99703.06
2022-10-05T23:48:22.732Z,99705.78
2022-10-05T23:50:49.788Z,99697.50
2022-10-05T23:53:17.507Z,99709.75
2022-10-05T23:55:43.846Z,99693.09
2022-10-05T23:58:11.440Z,99709.19
